Huvudsida
METAR-TAF:

METAR-TAF

Flygplatser :

Kristianstad Österlen Airport

Kristianstad, Sverige

latitud: 55-55N, longitud: 014-05E, höjd: 23 m

Aktuellt väderrapport

Denna rapport gjordes för 48 minuter sedan, klockan 22:20 UTC
Vind 4 kt från väst/sydväst
Temperatur 12°C
Fuktighet 76%
Tryck 1018 hPa
Sikt 10 km eller mer

METAR: ESMK 202220Z AUTO 25004KT 9999 NCD 12/08 Q1018

Tid: 01:08 (23:08 UTC)

Väderprognos

Denna rapport gjordes för 11 timmar och 57 minuter sedan, klockan 11:11 UTC
Prognos gäller från 20 kl. 12 UTC till 20 kl. 15 UTC
Vind 12 kt från väst
Sikt 10 km eller mer
Spridda moln på en höjd av 3500 ft

TAF: ESMK 201111Z 2012/2015 28012KT 9999 SCT035

Aktuella väderrapporter och prognoser från 4000 flygplatser (METAR- och TAF-rapporter).

De tillgängliga stationerna syns som gula och röda prickar på kartan.

För musen över prickarna för att se namnen på stationerna.

Klicka sedan för att få väderrapporter och prognoser.

För att ändra kartan: Klicka på de gröna knapparna med ett svart kors på för att zooma in; den gröna knappen med ett streck på för att zooma ut; eller på de gröna pilarna för angränsande kartor.


METAR-TAF: